Time;durP1;ratioP1;P1;durP2;ratioP2;P2;SDS_P1;SDS_P2;PMS_P1;PMS_P2;Temp;Humidity;BMP_temperature;BMP_pressure;BME280_temperature;BME280_humidity;BME280_pressure;Samples;Min_cycle;Max_cycle;Signal;HPM_P1;HPM_P2
2021/03/23 00:00:54;;;;;;;14.15;6.80;;;;;;;;;;4980734;28;20018;-89
2021/03/23 00:03:22;;;;;;;17.85;7.95;;;;;;;;;;4997963;28;20027;-88
2021/03/23 00:05:49;;;;;;;16.95;6.57;;;;;;;;;;4997869;28;20026;-89
2021/03/23 00:08:21;;;;;;;18.52;6.18;;;;;;;;;;4998014;28;20026;-89
2021/03/23 00:10:47;;;;;;;13.98;5.60;;;;;;;;;;4997967;28;20027;-89
2021/03/23 00:13:13;;;;;;;15.25;6.03;;;;;;;;;;4997852;28;20031;-90
2021/03/23 00:15:39;;;;;;;12.10;5.70;;;;;;;;;;4980747;28;20129;-90
2021/03/23 00:18:08;;;;;;;15.00;5.32;;;;;;;;;;4980741;28;20031;-91
2021/03/23 00:20:34;;;;;;;13.43;6.10;;;;;;;;;;4980362;28;20081;-91
2021/03/23 00:23:01;;;;;;;15.00;5.40;;;;;;;;;;4997629;28;20026;-89
2021/03/23 00:25:27;;;;;;;18.95;5.72;;;;;;;;;;4997707;28;20029;-89
2021/03/23 00:27:53;;;;;;;13.35;5.28;;;;;;;;;;4997593;28;20046;-90
2021/03/23 00:30:19;;;;;;;10.77;5.32;;;;;;;;;;4980596;28;20038;-89
2021/03/23 00:32:45;;;;;;;12.18;5.20;;;;;;;;;;4998752;28;20037;-90
2021/03/23 00:35:12;;;;;;;13.25;5.38;;;;;;;;;;5001450;28;20027;-89
2021/03/23 00:37:38;;;;;;;10.60;4.63;;;;;;;;;;4983932;28;20085;-90
2021/03/23 00:40:06;;;;;;;14.95;5.15;;;;;;;;;;5001171;28;20053;-90
2021/03/23 00:42:32;;;;;;;14.15;4.95;;;;;;;;;;4983884;28;20511;-91
2021/03/23 00:44:59;;;;;;;10.05;5.80;;;;;;;;;;5001179;28;20313;-91
2021/03/23 00:47:25;;;;;;;18.17;7.32;;;;;;;;;;4983846;28;20452;-91
2021/03/23 00:49:51;;;;;;;15.82;7.20;;;;;;;;;;5001123;28;20038;-91
2021/03/23 00:52:17;;;;;;;16.48;6.68;;;;;;;;;;5000901;28;20034;-90
2021/03/23 00:54:43;;;;;;;15.75;6.55;;;;;;;;;;5001065;28;20030;-90
2021/03/23 00:57:28;;;;;;;14.43;6.00;;;;;;;;;;5000934;28;20037;-91
2021/03/23 00:59:54;;;;;;;18.75;6.22;;;;;;;;;;4983612;28;20027;-90
2021/03/23 01:02:21;;;;;;;13.63;5.85;;;;;;;;;;4983643;28;20022;-91
2021/03/23 01:04:47;;;;;;;12.82;5.22;;;;;;;;;;5000838;28;20023;-91
2021/03/23 01:07:13;;;;;;;10.98;5.22;;;;;;;;;;5000666;28;20026;-88
2021/03/23 01:09:39;;;;;;;8.82;4.70;;;;;;;;;;4983210;28;20023;-89
2021/03/23 01:12:07;;;;;;;12.52;4.85;;;;;;;;;;5000641;28;20097;-90
2021/03/23 01:14:34;;;;;;;16.30;6.47;;;;;;;;;;4999857;28;20421;-90
2021/03/23 01:17:00;;;;;;;11.50;4.72;;;;;;;;;;4983179;28;20031;-89
2021/03/23 01:19:26;;;;;;;8.18;3.95;;;;;;;;;;4983866;28;20036;-90
2021/03/23 01:21:52;;;;;;;13.93;5.20;;;;;;;;;;5000335;28;20034;-90
2021/03/23 01:24:18;;;;;;;9.38;5.05;;;;;;;;;;4983094;28;20045;-89
2021/03/23 01:26:44;;;;;;;11.38;5.68;;;;;;;;;;4983117;28;20026;-89
2021/03/23 01:29:10;;;;;;;14.38;6.20;;;;;;;;;;4982901;28;20050;-89
2021/03/23 01:31:36;;;;;;;14.75;5.43;;;;;;;;;;4983064;28;20034;-90
2021/03/23 01:34:03;;;;;;;9.10;4.93;;;;;;;;;;5000462;28;20032;-90
2021/03/23 01:36:29;;;;;;;11.02;4.50;;;;;;;;;;5000310;28;20030;-89
2021/03/23 01:38:55;;;;;;;13.38;5.05;;;;;;;;;;4983049;28;20026;-89
2021/03/23 01:41:22;;;;;;;15.02;5.57;;;;;;;;;;4982929;28;20023;-89
2021/03/23 01:43:48;;;;;;;10.55;4.63;;;;;;;;;;4982988;28;20030;-90
2021/03/23 01:46:35;;;;;;;17.45;5.35;;;;;;;;;;4982001;28;20062;-89
2021/03/23 01:49:01;;;;;;;15.45;5.50;;;;;;;;;;5000501;28;20023;-88
2021/03/23 01:51:28;;;;;;;15.02;6.00;;;;;;;;;;4999773;28;20038;-89
2021/03/23 01:53:58;;;;;;;16.83;6.47;;;;;;;;;;4982551;28;20316;-89
2021/03/23 01:56:24;;;;;;;12.93;6.28;;;;;;;;;;4982540;28;20029;-88
2021/03/23 01:58:50;;;;;;;14.00;6.63;;;;;;;;;;4982297;28;20023;-88
2021/03/23 02:01:19;;;;;;;10.98;6.28;;;;;;;;;;4982399;28;20049;-88
2021/03/23 02:03:45;;;;;;;13.00;5.35;;;;;;;;;;4982638;28;20037;-89
2021/03/23 02:06:28;;;;;;;10.75;4.55;;;;;;;;;;4999764;28;20322;-88
2021/03/23 02:08:58;;;;;;;17.08;4.85;;;;;;;;;;4999172;28;20029;-88
2021/03/23 02:11:24;;;;;;;13.75;4.63;;;;;;;;;;4982189;28;20323;-87
2021/03/23 02:13:50;;;;;;;7.20;4.00;;;;;;;;;;4999397;28;20059;-89
2021/03/23 02:16:16;;;;;;;9.27;3.58;;;;;;;;;;4999270;28;20031;-87
2021/03/23 02:18:43;;;;;;;12.75;3.78;;;;;;;;;;4999083;28;20023;-90
2021/03/23 02:21:09;;;;;;;12.13;3.60;;;;;;;;;;4981719;28;20030;-88
2021/03/23 02:23:41;;;;;;;9.57;3.85;;;;;;;;;;4999498;28;20396;-89
2021/03/23 02:26:27;;;;;;;11.68;4.20;;;;;;;;;;4982162;28;20019;-89
2021/03/23 02:28:56;;;;;;;10.15;4.00;;;;;;;;;;4998999;28;20065;-89
2021/03/23 02:31:28;;;;;;;9.35;4.30;;;;;;;;;;4999170;28;20034;-88
2021/03/23 02:33:54;;;;;;;11.63;5.97;;;;;;;;;;4998983;28;20413;-89
2021/03/23 02:36:20;;;;;;;9.65;4.70;;;;;;;;;;4998883;28;20053;-88
2021/03/23 02:38:47;;;;;;;14.73;5.10;;;;;;;;;;4998831;28;20033;-89
2021/03/23 02:41:13;;;;;;;9.75;4.55;;;;;;;;;;4998822;28;20027;-88
2021/03/23 02:43:39;;;;;;;8.57;4.13;;;;;;;;;;4981619;28;20038;-89
2021/03/23 02:46:05;;;;;;;7.25;4.03;;;;;;;;;;4999067;28;20046;-89
2021/03/23 02:48:31;;;;;;;9.07;3.75;;;;;;;;;;4999025;28;20049;-89
2021/03/23 02:50:57;;;;;;;9.30;3.80;;;;;;;;;;4998394;28;20086;-89
2021/03/23 02:53:24;;;;;;;7.15;3.45;;;;;;;;;;4981888;28;20034;-89
2021/03/23 03:01:57;;;;;;;6.53;3.85;;;;;;;;;;4998719;28;20245;-90
2021/03/23 03:04:23;;;;;;;11.02;4.93;;;;;;;;;;4998783;28;20022;-90
2021/03/23 03:06:49;;;;;;;11.57;5.30;;;;;;;;;;4998446;28;20022;-90
2021/03/23 03:09:15;;;;;;;10.25;5.20;;;;;;;;;;4998849;28;20022;-88
2021/03/23 03:11:41;;;;;;;12.00;4.30;;;;;;;;;;4998687;28;20034;-91
2021/03/23 03:14:07;;;;;;;12.82;5.43;;;;;;;;;;4981287;28;20128;-90
2021/03/23 03:16:34;;;;;;;9.20;4.30;;;;;;;;;;4998263;28;20026;-89
2021/03/23 03:19:00;;;;;;;10.70;4.43;;;;;;;;;;4981153;28;20026;-89
2021/03/23 03:21:27;;;;;;;11.55;4.45;;;;;;;;;;4998156;28;20046;-90
2021/03/23 03:23:53;;;;;;;10.50;4.45;;;;;;;;;;4981176;28;20080;-90
2021/03/23 03:26:19;;;;;;;12.68;5.05;;;;;;;;;;4980966;28;20030;-90
2021/03/23 03:28:50;;;;;;;11.00;4.72;;;;;;;;;;4998223;28;20053;-91
2021/03/23 03:31:21;;;;;;;10.90;4.50;;;;;;;;;;4998198;28;20035;-90
2021/03/23 03:33:47;;;;;;;12.07;4.78;;;;;;;;;;4980932;28;20116;-90
2021/03/23 03:36:13;;;;;;;8.65;4.63;;;;;;;;;;4981079;28;20030;-89
2021/03/23 03:38:39;;;;;;;9.85;5.10;;;;;;;;;;4981076;28;20324;-90
2021/03/23 03:41:06;;;;;;;10.20;4.70;;;;;;;;;;4997809;28;20025;-89
2021/03/23 03:43:33;;;;;;;10.73;4.90;;;;;;;;;;4997787;28;20018;-90
2021/03/23 03:46:00;;;;;;;10.73;4.75;;;;;;;;;;4980902;28;20038;-89
2021/03/23 03:48:26;;;;;;;12.60;4.82;;;;;;;;;;4980828;28;20038;-89
2021/03/23 03:50:53;;;;;;;10.13;5.03;;;;;;;;;;4997885;28;20037;-89
2021/03/23 03:53:19;;;;;;;11.88;5.10;;;;;;;;;;4997882;28;20038;-89
2021/03/23 03:55:45;;;;;;;10.13;4.97;;;;;;;;;;4980658;28;20404;-89
2021/03/23 03:58:12;;;;;;;10.23;5.22;;;;;;;;;;4980780;28;20041;-89
2021/03/23 04:00:38;;;;;;;9.98;4.95;;;;;;;;;;4998327;28;20037;-90
2021/03/23 04:03:10;;;;;;;12.77;5.30;;;;;;;;;;4997831;28;20030;-90
2021/03/23 04:05:38;;;;;;;15.10;6.53;;;;;;;;;;4980695;28;20023;-91
2021/03/23 04:08:05;;;;;;;14.00;8.00;;;;;;;;;;4998991;28;20061;-90
2021/03/23 04:10:31;;;;;;;25.25;9.45;;;;;;;;;;5001675;28;20409;-90
2021/03/23 04:12:57;;;;;;;16.73;7.78;;;;;;;;;;5001717;28;20030;-90
2021/03/23 04:15:37;;;;;;;14.65;7.10;;;;;;;;;;4984327;28;20034;-90
2021/03/23 04:18:04;;;;;;;13.68;6.35;;;;;;;;;;5001349;28;20030;-90
2021/03/23 04:20:30;;;;;;;12.80;6.38;;;;;;;;;;4968524;28;20027;-90
2021/03/23 04:22:57;;;;;;;12.50;6.28;;;;;;;;;;5001838;28;20026;-89
2021/03/23 04:25:24;;;;;;;11.38;5.28;;;;;;;;;;5001507;28;20038;-89
2021/03/23 04:27:52;;;;;;;13.95;5.40;;;;;;;;;;4980853;28;20086;-88
2021/03/23 04:30:19;;;;;;;11.40;5.50;;;;;;;;;;4981855;28;20031;-89
2021/03/23 04:32:46;;;;;;;13.82;5.65;;;;;;;;;;4981792;28;20027;-88
2021/03/23 04:35:24;;;;;;;10.43;5.20;;;;;;;;;;4980688;28;20022;-90
2021/03/23 04:37:50;;;;;;;15.15;6.20;;;;;;;;;;4981879;28;20030;-89
2021/03/23 04:40:16;;;;;;;14.10;5.80;;;;;;;;;;4980798;28;20030;-89
2021/03/23 04:42:42;;;;;;;10.30;6.03;;;;;;;;;;4981549;28;20023;-85
2021/03/23 04:45:09;;;;;;;11.82;5.85;;;;;;;;;;4981326;28;20023;-85
2021/03/23 04:47:35;;;;;;;12.68;5.63;;;;;;;;;;4981691;28;20070;-84
2021/03/23 04:50:01;;;;;;;10.98;5.50;;;;;;;;;;4981011;28;20031;-85
2021/03/23 04:52:27;;;;;;;16.27;5.65;;;;;;;;;;4981308;28;20089;-85
2021/03/23 04:54:53;;;;;;;11.48;5.40;;;;;;;;;;4981405;28;20050;-86
2021/03/23 04:57:19;;;;;;;13.70;5.28;;;;;;;;;;4980294;28;20027;-85
2021/03/23 04:59:45;;;;;;;14.00;6.07;;;;;;;;;;4979925;28;20062;-85
2021/03/23 05:02:11;;;;;;;13.52;6.13;;;;;;;;;;4981065;28;20073;-85
2021/03/23 05:04:37;;;;;;;11.20;5.65;;;;;;;;;;4981284;28;20219;-85
2021/03/23 05:07:03;;;;;;;14.80;5.38;;;;;;;;;;4980033;28;20041;-84
2021/03/23 05:09:29;;;;;;;13.50;5.63;;;;;;;;;;4980082;28;20436;-85
2021/03/23 05:11:56;;;;;;;11.50;6.15;;;;;;;;;;4980961;28;20097;-85
2021/03/23 05:14:22;;;;;;;12.13;6.00;;;;;;;;;;4981063;28;20026;-85
2021/03/23 05:16:48;;;;;;;17.05;6.63;;;;;;;;;;4979799;28;20066;-85
2021/03/23 05:19:14;;;;;;;14.32;6.78;;;;;;;;;;4979641;28;20027;-85
2021/03/23 05:21:40;;;;;;;15.38;6.90;;;;;;;;;;4979469;28;20086;-85
2021/03/23 05:24:06;;;;;;;12.52;6.28;;;;;;;;;;4980833;28;20027;-84
2021/03/23 05:26:32;;;;;;;14.27;6.13;;;;;;;;;;4980742;28;20073;-85
2021/03/23 05:28:58;;;;;;;14.10;6.90;;;;;;;;;;4997581;28;20455;-84
2021/03/23 05:31:25;;;;;;;19.13;6.40;;;;;;;;;;5000094;28;20023;-85
2021/03/23 05:33:52;;;;;;;12.95;6.18;;;;;;;;;;5000196;28;20026;-85
2021/03/23 05:36:18;;;;;;;17.27;6.68;;;;;;;;;;4982973;28;20049;-85
2021/03/23 05:38:44;;;;;;;13.77;6.05;;;;;;;;;;4999927;28;20053;-84
2021/03/23 05:41:13;;;;;;;15.50;6.75;;;;;;;;;;4999788;28;20344;-85
2021/03/23 05:43:47;;;;;;;14.50;7.40;;;;;;;;;;4982597;28;20329;-84
2021/03/23 05:46:18;;;;;;;13.68;7.13;;;;;;;;;;4999994;28;20393;-85
2021/03/23 05:49:03;;;;;;;13.05;6.53;;;;;;;;;;4999714;28;20032;-85
2021/03/23 05:51:38;;;;;;;19.38;7.20;;;;;;;;;;4982529;28;20041;-85
2021/03/23 05:54:23;;;;;;;14.73;7.30;;;;;;;;;;4982440;28;20053;-84
2021/03/23 05:56:54;;;;;;;14.52;7.78;;;;;;;;;;4982387;28;20056;-83
2021/03/23 05:59:34;;;;;;;12.88;7.20;;;;;;;;;;4999637;28;20026;-84
2021/03/23 06:02:26;;;;;;;17.88;8.07;;;;;;;;;;4999509;28;20445;-84
2021/03/23 06:05:05;;;;;;;21.33;8.23;;;;;;;;;;4979498;28;20035;-84
2021/03/23 06:07:36;;;;;;;22.30;8.38;;;;;;;;;;4999268;28;20459;-84
2021/03/23 06:10:02;;;;;;;18.23;8.57;;;;;;;;;;4981893;28;20054;-84
2021/03/23 06:12:35;;;;;;;17.52;8.02;;;;;;;;;;4999388;28;20397;-84
2021/03/23 06:15:34;;;;;;;17.08;7.80;;;;;;;;;;4981862;28;20030;-84
2021/03/23 06:18:00;;;;;;;14.55;7.55;;;;;;;;;;4939412;29;20046;-84
2021/03/23 06:20:31;;;;;;;16.27;7.78;;;;;;;;;;4939408;29;20059;-84
2021/03/23 06:22:57;;;;;;;21.30;8.77;;;;;;;;;;4939570;29;20032;-84
2021/03/23 06:25:24;;;;;;;23.58;8.95;;;;;;;;;;4939526;29;20034;-85
2021/03/23 06:27:53;;;;;;;18.88;8.73;;;;;;;;;;4922816;29;20046;-84
2021/03/23 06:30:26;;;;;;;19.52;9.90;;;;;;;;;;4923020;29;20122;-84
2021/03/23 06:32:53;;;;;;;19.77;9.15;;;;;;;;;;4938905;29;20188;-83
2021/03/23 06:35:41;;;;;;;20.98;10.05;;;;;;;;;;4923110;29;20036;-84
2021/03/23 06:38:15;;;;;;;24.67;10.02;;;;;;;;;;4938953;29;20115;-84
2021/03/23 06:41:01;;;;;;;18.45;9.40;;;;;;;;;;4939070;29;20082;-84
2021/03/23 06:43:29;;;;;;;20.80;9.77;;;;;;;;;;4938868;29;20434;-84
2021/03/23 06:46:04;;;;;;;17.30;9.35;;;;;;;;;;4938800;28;20474;-84
2021/03/23 06:48:32;;;;;;;18.40;8.90;;;;;;;;;;4938913;29;20116;-84
2021/03/23 06:51:09;;;;;;;18.90;9.23;;;;;;;;;;4922648;29;20060;-84
2021/03/23 06:53:36;;;;;;;18.15;8.90;;;;;;;;;;4970199;28;20112;-84
2021/03/23 06:56:20;;;;;;;20.30;9.38;;;;;;;;;;4998284;28;20034;-84
2021/03/23 06:58:47;;;;;;;19.90;8.85;;;;;;;;;;4998489;28;20031;-84
2021/03/23 07:01:13;;;;;;;18.55;10.10;;;;;;;;;;4981118;28;20027;-84
2021/03/23 07:03:40;;;;;;;19.83;9.07;;;;;;;;;;4998305;28;20030;-84
2021/03/23 07:06:18;;;;;;;21.83;10.38;;;;;;;;;;4998558;28;20026;-84
2021/03/23 07:08:44;;;;;;;37.30;17.25;;;;;;;;;;4998279;28;20034;-84
2021/03/23 07:11:10;;;;;;;23.52;12.23;;;;;;;;;;4998319;28;20041;-84
2021/03/23 07:13:38;;;;;;;28.25;14.68;;;;;;;;;;4998369;28;20022;-84
2021/03/23 07:16:07;;;;;;;30.25;16.92;;;;;;;;;;4997917;28;20471;-84
2021/03/23 07:18:37;;;;;;;24.83;12.95;;;;;;;;;;4997960;28;20022;-83
2021/03/23 07:21:06;;;;;;;19.80;9.65;;;;;;;;;;4980710;28;20034;-86
2021/03/23 07:23:34;;;;;;;33.80;17.33;;;;;;;;;;4998401;28;20081;-83
2021/03/23 07:26:14;;;;;;;29.30;13.38;;;;;;;;;;4997789;28;20054;-85
2021/03/23 07:28:42;;;;;;;59.38;26.95;;;;;;;;;;4997663;28;20050;-84
2021/03/23 07:31:28;;;;;;;26.02;13.38;;;;;;;;;;4997674;28;20030;-83
2021/03/23 07:34:11;;;;;;;20.30;10.27;;;;;;;;;;4997879;28;20026;-83
2021/03/23 07:36:40;;;;;;;15.98;8.68;;;;;;;;;;4997825;28;20036;-85
2021/03/23 07:39:18;;;;;;;18.80;8.80;;;;;;;;;;4997603;28;20313;-84
2021/03/23 07:41:47;;;;;;;17.00;9.15;;;;;;;;;;4997698;28;20315;-83
2021/03/23 07:44:25;;;;;;;18.25;9.45;;;;;;;;;;5000837;28;20113;-83
2021/03/23 07:46:57;;;;;;;15.25;7.30;;;;;;;;;;4984361;28;20417;-82
2021/03/23 07:49:23;;;;;;;14.82;7.05;;;;;;;;;;4984262;28;20039;-81
2021/03/23 07:51:57;;;;;;;16.50;7.53;;;;;;;;;;5001734;28;20039;-82
2021/03/23 07:54:43;;;;;;;17.75;8.32;;;;;;;;;;5001729;28;20030;-81
2021/03/23 07:57:28;;;;;;;15.55;9.02;;;;;;;;;;4984019;28;20077;-81
2021/03/23 08:00:04;;;;;;;12.63;6.88;;;;;;;;;;4984120;28;20367;-82
2021/03/23 08:02:49;;;;;;;14.93;7.22;;;;;;;;;;5001228;28;20029;-82
2021/03/23 08:05:15;;;;;;;13.55;7.50;;;;;;;;;;5001402;28;20097;-82
2021/03/23 08:07:53;;;;;;;10.55;5.95;;;;;;;;;;5001097;28;20034;-82
2021/03/23 08:10:22;;;;;;;9.68;5.35;;;;;;;;;;5001010;28;20018;-82
2021/03/23 08:13:18;;;;;;;13.32;5.88;;;;;;;;;;5001030;28;20022;-83
2021/03/23 08:15:44;;;;;;;12.50;5.57;;;;;;;;;;4941298;29;20133;-83
2021/03/23 08:18:29;;;;;;;12.48;5.88;;;;;;;;;;4941017;29;20028;-82
2021/03/23 08:21:09;;;;;;;11.80;6.00;;;;;;;;;;4925248;29;20039;-82
2021/03/23 08:23:41;;;;;;;12.15;5.88;;;;;;;;;;4941219;29;20031;-82
2021/03/23 08:26:26;;;;;;;9.50;5.20;;;;;;;;;;4925069;29;20445;-82
2021/03/23 08:29:10;;;;;;;11.73;5.65;;;;;;;;;;4941026;29;20059;-82
2021/03/23 08:31:47;;;;;;;11.82;6.07;;;;;;;;;;4940834;28;20031;-82
2021/03/23 08:34:13;;;;;;;13.35;6.40;;;;;;;;;;4940882;29;20027;-82
2021/03/23 08:36:39;;;;;;;18.25;9.90;;;;;;;;;;4940860;29;20120;-82
2021/03/23 08:39:11;;;;;;;14.68;6.75;;;;;;;;;;4940783;29;20032;-82
2021/03/23 08:41:45;;;;;;;7.60;4.05;;;;;;;;;;4940786;29;20032;-82
2021/03/23 08:44:18;;;;;;;13.30;5.25;;;;;;;;;;4940888;29;20034;-82
2021/03/23 08:46:44;;;;;;;11.57;5.35;;;;;;;;;;4940594;29;20040;-82
2021/03/23 08:49:17;;;;;;;11.65;4.95;;;;;;;;;;4940799;29;20047;-81
2021/03/23 08:51:46;;;;;;;8.73;4.53;;;;;;;;;;4961031;28;20039;-82
2021/03/23 08:54:12;;;;;;;11.60;5.60;;;;;;;;;;5000150;28;20029;-82
2021/03/23 08:56:46;;;;;;;15.07;6.32;;;;;;;;;;5000386;28;20065;-82
2021/03/23 08:59:30;;;;;;;9.55;3.88;;;;;;;;;;4982862;28;20161;-82
2021/03/23 09:01:56;;;;;;;10.85;4.95;;;;;;;;;;5000394;28;20061;-82
2021/03/23 09:04:22;;;;;;;8.90;3.97;;;;;;;;;;4982890;28;20034;-81
2021/03/23 09:06:56;;;;;;;10.80;5.25;;;;;;;;;;5000199;28;20106;-81
2021/03/23 09:09:34;;;;;;;11.38;6.50;;;;;;;;;;4982902;28;20027;-82
2021/03/23 09:12:03;;;;;;;15.95;7.28;;;;;;;;;;5000216;28;20038;-81
2021/03/23 09:14:30;;;;;;;13.57;6.65;;;;;;;;;;5000258;28;20053;-83
2021/03/23 09:17:00;;;;;;;15.27;6.25;;;;;;;;;;5000033;28;20026;-81
2021/03/23 09:19:31;;;;;;;11.68;5.60;;;;;;;;;;4999876;28;20417;-85
2021/03/23 09:21:58;;;;;;;12.63;6.30;;;;;;;;;;5000428;28;20413;-85
2021/03/23 09:24:27;;;;;;;19.67;9.00;;;;;;;;;;5000349;28;20030;-85
2021/03/23 09:26:54;;;;;;;19.33;10.50;;;;;;;;;;4999742;28;20022;-77
2021/03/23 09:29:34;;;;;;;10.98;5.55;;;;;;;;;;4999837;28;20113;-78
2021/03/23 09:32:02;;;;;;;9.43;5.00;;;;;;;;;;4999631;28;20034;-79
2021/03/23 09:34:47;;;;;;;13.90;8.25;;;;;;;;;;4999592;28;20026;-79
2021/03/23 09:37:33;;;;;;;13.15;7.10;;;;;;;;;;4982304;28;20022;-79
2021/03/23 09:40:00;;;;;;;14.65;6.25;;;;;;;;;;4982244;28;20030;-77
2021/03/23 09:42:30;;;;;;;20.90;12.20;;;;;;;;;;4999450;28;20019;-78
2021/03/23 09:45:01;;;;;;;14.68;7.38;;;;;;;;;;4982137;28;20026;-79
2021/03/23 09:47:51;;;;;;;15.80;9.68;;;;;;;;;;4999259;28;20364;-79
2021/03/23 09:50:28;;;;;;;8.80;4.43;;;;;;;;;;4939635;29;20423;-79
2021/03/23 09:53:02;;;;;;;11.55;6.38;;;;;;;;;;4923889;29;20347;-79
2021/03/23 09:55:28;;;;;;;6.93;3.95;;;;;;;;;;4939389;29;20039;-79
2021/03/23 09:57:55;;;;;;;7.47;4.03;;;;;;;;;;4939141;29;20108;-79
2021/03/23 10:00:27;;;;;;;7.32;3.70;;;;;;;;;;4923141;29;20035;-79
2021/03/23 10:02:53;;;;;;;15.87;8.03;;;;;;;;;;4939320;29;20381;-79
2021/03/23 10:05:26;;;;;;;6.93;4.00;;;;;;;;;;4938628;29;20539;-79
2021/03/23 10:07:53;;;;;;;7.20;3.35;;;;;;;;;;4939213;29;20122;-79
2021/03/23 10:10:20;;;;;;;11.10;5.35;;;;;;;;;;4939102;29;20024;-79
2021/03/23 10:12:46;;;;;;;10.45;7.18;;;;;;;;;;4939087;29;20028;-79
2021/03/23 10:15:24;;;;;;;8.15;4.35;;;;;;;;;;4939015;29;20086;-79
2021/03/23 10:17:50;;;;;;;16.42;7.95;;;;;;;;;;4939027;29;20106;-80
2021/03/23 10:20:20;;;;;;;18.63;9.07;;;;;;;;;;4938977;29;20067;-79
2021/03/23 10:22:53;;;;;;;10.52;5.20;;;;;;;;;;4939113;29;20035;-80
2021/03/23 10:25:20;;;;;;;9.15;4.32;;;;;;;;;;4938832;29;20028;-79
2021/03/23 10:27:47;;;;;;;8.15;4.30;;;;;;;;;;4964506;28;20045;-79
2021/03/23 10:30:13;;;;;;;8.93;4.00;;;;;;;;;;4997706;28;20044;-79
2021/03/23 10:32:45;;;;;;;8.32;3.50;;;;;;;;;;4980338;28;20023;-79
2021/03/23 10:35:13;;;;;;;7.63;3.67;;;;;;;;;;4997758;28;20030;-79
2021/03/23 10:37:39;;;;;;;8.85;3.50;;;;;;;;;;4997528;28;20030;-79
2021/03/23 10:40:07;;;;;;;7.55;3.95;;;;;;;;;;4997726;28;20026;-79
2021/03/23 10:42:34;;;;;;;5.93;3.80;;;;;;;;;;4997575;28;20405;-79
2021/03/23 10:45:10;;;;;;;10.15;4.63;;;;;;;;;;4997472;28;20031;-79
2021/03/23 10:47:38;;;;;;;7.15;4.03;;;;;;;;;;4997607;28;20395;-79
2021/03/23 10:50:24;;;;;;;10.82;4.82;;;;;;;;;;4997472;28;20022;-79
2021/03/23 10:52:51;;;;;;;8.07;4.22;;;;;;;;;;4980137;28;20026;-79
2021/03/23 10:55:20;;;;;;;8.02;3.72;;;;;;;;;;4997311;28;20109;-79
2021/03/23 10:57:46;;;;;;;10.57;4.40;;;;;;;;;;4997367;28;20018;-79
2021/03/23 11:00:22;;;;;;;6.70;4.13;;;;;;;;;;4997223;28;20029;-79
2021/03/23 11:02:48;;;;;;;11.57;4.65;;;;;;;;;;4980191;28;20294;-79
2021/03/23 11:05:16;;;;;;;6.53;3.42;;;;;;;;;;4997110;28;20073;-79
2021/03/23 11:07:51;;;;;;;8.77;3.88;;;;;;;;;;4997361;28;20053;-79
2021/03/23 11:10:19;;;;;;;10.60;4.15;;;;;;;;;;4997051;28;20029;-79
2021/03/23 11:12:45;;;;;;;8.43;3.90;;;;;;;;;;4997166;28;20029;-79
2021/03/23 11:15:11;;;;;;;6.45;3.83;;;;;;;;;;4996689;28;20061;-79
2021/03/23 11:17:45;;;;;;;9.57;4.30;;;;;;;;;;4996922;28;20030;-79
2021/03/23 11:20:13;;;;;;;11.02;3.55;;;;;;;;;;4997008;28;20402;-79
2021/03/23 11:22:40;;;;;;;7.63;3.50;;;;;;;;;;4997174;28;20322;-78
2021/03/23 11:25:06;;;;;;;12.02;4.80;;;;;;;;;;4996890;28;20029;-78
2021/03/23 11:27:32;;;;;;;9.73;5.10;;;;;;;;;;4959483;28;1083674;-86
2021/03/23 11:29:59;;;;;;;7.80;4.10;;;;;;;;;;4997743;28;20041;-78
2021/03/23 11:32:27;;;;;;;9.27;4.40;;;;;;;;;;4997475;28;20022;-78
2021/03/23 11:34:53;;;;;;;8.13;4.22;;;;;;;;;;4997486;28;20081;-78
2021/03/23 11:37:19;;;;;;;12.30;4.13;;;;;;;;;;4997604;28;20026;-78
2021/03/23 11:39:46;;;;;;;7.70;3.50;;;;;;;;;;4997458;28;20467;-78
2021/03/23 11:42:26;;;;;;;6.10;3.20;;;;;;;;;;4997516;28;20065;-79
2021/03/23 11:44:53;;;;;;;8.18;4.55;;;;;;;;;;4997432;28;20026;-78
2021/03/23 11:47:35;;;;;;;7.38;4.28;;;;;;;;;;4980175;28;20031;-78
2021/03/23 11:50:05;;;;;;;6.05;3.10;;;;;;;;;;4997604;28;20041;-78
2021/03/23 11:52:31;;;;;;;9.15;4.45;;;;;;;;;;4980086;28;20125;-78
2021/03/23 11:54:58;;;;;;;6.20;3.70;;;;;;;;;;4997430;28;20089;-78
2021/03/23 11:57:24;;;;;;;5.75;3.45;;;;;;;;;;4997288;28;20032;-78
2021/03/23 11:59:51;;;;;;;8.55;3.20;;;;;;;;;;4980008;28;20041;-79
2021/03/23 12:02:17;;;;;;;14.55;6.78;;;;;;;;;;4997034;28;20023;-78
2021/03/23 12:04:43;;;;;;;9.23;3.20;;;;;;;;;;4997481;28;20026;-78
2021/03/23 12:07:24;;;;;;;8.30;3.50;;;;;;;;;;4997294;28;20113;-78
2021/03/23 12:09:57;;;;;;;7.32;3.75;;;;;;;;;;4997327;28;20054;-78
2021/03/23 12:12:23;;;;;;;;;;;;;;;;;;4997662;28;20033;-79
2021/03/23 12:14:51;;;;;;;55.92;27.55;;;;;;;;;;4979893;28;19992;-79
2021/03/23 12:17:18;;;;;;;44.92;28.73;;;;;;;;;;4997297;28;20022;-79
2021/03/23 12:19:44;;;;;;;25.40;17.83;;;;;;;;;;4997233;28;20424;-79
2021/03/23 12:22:11;;;;;;;18.33;13.57;;;;;;;;;;4997154;28;20103;-78
2021/03/23 12:24:38;;;;;;;14.98;9.63;;;;;;;;;;4997057;28;20030;-79
2021/03/23 12:27:05;;;;;;;12.82;8.98;;;;;;;;;;4979283;28;20030;-78
2021/03/23 12:29:31;;;;;;;34.10;24.65;;;;;;;;;;4999102;28;20081;-78
2021/03/23 12:31:57;;;;;;;11.10;6.32;;;;;;;;;;5000583;28;20069;-78
2021/03/23 12:34:24;;;;;;;17.52;13.93;;;;;;;;;;4983365;28;20034;-79
2021/03/23 12:36:50;;;;;;;8.90;6.25;;;;;;;;;;5000775;28;20114;-78
2021/03/23 12:39:17;;;;;;;12.82;9.55;;;;;;;;;;5000676;28;20023;-78
2021/03/23 12:41:43;;;;;;;6.47;5.43;;;;;;;;;;5000582;28;20356;-78
2021/03/23 12:44:10;;;;;;;11.13;7.57;;;;;;;;;;5000483;28;20076;-79
2021/03/23 12:46:36;;;;;;;6.10;3.58;;;;;;;;;;4983236;28;20058;-78
2021/03/23 12:49:02;;;;;;;6.55;4.38;;;;;;;;;;5000614;28;20052;-79
2021/03/23 12:51:42;;;;;;;8.90;5.75;;;;;;;;;;4983274;28;20034;-79
2021/03/23 12:54:21;;;;;;;10.43;6.72;;;;;;;;;;5000324;28;20416;-79
2021/03/23 12:56:47;;;;;;;10.35;4.40;;;;;;;;;;5000515;28;20114;-79
2021/03/23 12:59:21;;;;;;;9.93;6.25;;;;;;;;;;5000007;28;20033;-79
2021/03/23 13:01:47;;;;;;;8.13;4.47;;;;;;;;;;5000127;28;20022;-78
2021/03/23 13:04:13;;;;;;;13.30;6.85;;;;;;;;;;5000190;28;20409;-78
2021/03/23 13:06:39;;;;;;;16.42;7.97;;;;;;;;;;5000050;28;20018;-79
2021/03/23 13:09:06;;;;;;;12.52;8.07;;;;;;;;;;5000196;28;20031;-78
2021/03/23 13:11:33;;;;;;;24.73;20.73;;;;;;;;;;5000067;28;20061;-79
2021/03/23 13:14:01;;;;;;;21.50;15.27;;;;;;;;;;4999950;28;20313;-78
2021/03/23 13:16:28;;;;;;;17.58;13.38;;;;;;;;;;4982813;28;20321;-79
2021/03/23 13:18:54;;;;;;;15.10;11.98;;;;;;;;;;4999629;28;20026;-78
2021/03/23 13:21:32;;;;;;;20.90;8.15;;;;;;;;;;4999744;28;20105;-78
2021/03/23 13:24:28;;;;;;;18.60;10.65;;;;;;;;;;4982526;28;20077;-79
2021/03/23 13:26:56;;;;;;;16.58;8.63;;;;;;;;;;4939813;29;20064;-79
2021/03/23 13:29:22;;;;;;;13.13;6.65;;;;;;;;;;4923804;29;20135;-79
2021/03/23 13:31:49;;;;;;;11.13;4.55;;;;;;;;;;4939963;29;20043;-78
2021/03/23 13:34:17;;;;;;;6.68;3.30;;;;;;;;;;4939751;29;20035;-78
2021/03/23 13:36:48;;;;;;;10.80;3.72;;;;;;;;;;4923870;29;20047;-79
2021/03/23 13:39:22;;;;;;;6.65;3.40;;;;;;;;;;4939773;29;20032;-78
2021/03/23 13:41:49;;;;;;;5.80;2.88;;;;;;;;;;4938725;29;20024;-79
2021/03/23 13:44:33;;;;;;;8.98;5.22;;;;;;;;;;4939610;29;20411;-78
2021/03/23 13:46:59;;;;;;;7.05;3.75;;;;;;;;;;4939660;29;20106;-78
2021/03/23 13:49:25;;;;;;;8.00;3.63;;;;;;;;;;4939494;29;20027;-78
2021/03/23 13:51:52;;;;;;;7.53;3.63;;;;;;;;;;4939444;29;20038;-79
2021/03/23 13:54:19;;;;;;;5.85;2.70;;;;;;;;;;4923283;29;20047;-78
2021/03/23 13:56:45;;;;;;;8.38;3.47;;;;;;;;;;4922834;28;20036;-77
2021/03/23 13:59:19;;;;;;;5.00;2.80;;;;;;;;;;4923461;29;20070;-79
2021/03/23 14:01:46;;;;;;;5.30;3.10;;;;;;;;;;4939299;29;20102;-78
2021/03/23 14:04:12;;;;;;;10.50;5.80;;;;;;;;;;4992906;28;20031;-79
2021/03/23 14:06:38;;;;;;;7.15;4.63;;;;;;;;;;4999035;28;20022;-79
2021/03/23 14:09:05;;;;;;;11.38;3.38;;;;;;;;;;4999020;28;20030;-79
2021/03/23 14:11:32;;;;;;;8.60;3.38;;;;;;;;;;4981566;28;20447;-79
2021/03/23 14:13:59;;;;;;;7.90;3.67;;;;;;;;;;4981591;28;20027;-79
2021/03/23 14:16:25;;;;;;;6.40;3.10;;;;;;;;;;4998951;28;20403;-79
2021/03/23 14:18:52;;;;;;;10.85;4.95;;;;;;;;;;4998465;28;20030;-79
2021/03/23 14:21:20;;;;;;;14.10;4.50;;;;;;;;;;4998814;28;20472;-79
2021/03/23 14:23:47;;;;;;;8.55;4.05;;;;;;;;;;4981455;28;20041;-79
2021/03/23 14:26:13;;;;;;;5.43;3.30;;;;;;;;;;4998599;28;20401;-79
2021/03/23 14:28:49;;;;;;;8.93;3.47;;;;;;;;;;4998356;28;20054;-79
2021/03/23 14:31:16;;;;;;;14.85;4.63;;;;;;;;;;4981320;28;20030;-78
2021/03/23 14:33:42;;;;;;;9.10;3.42;;;;;;;;;;4998419;28;20113;-79
2021/03/23 14:36:08;;;;;;;7.00;3.85;;;;;;;;;;4998402;28;20363;-79
2021/03/23 14:38:36;;;;;;;8.85;4.00;;;;;;;;;;4981021;28;20164;-79
2021/03/23 14:41:03;;;;;;;6.57;3.63;;;;;;;;;;4997961;28;20026;-79
2021/03/23 14:43:30;;;;;;;5.53;3.25;;;;;;;;;;4998382;28;20026;-79
2021/03/23 14:45:56;;;;;;;7.88;3.60;;;;;;;;;;4998219;28;20022;-79
2021/03/23 14:48:24;;;;;;;6.18;3.72;;;;;;;;;;4998240;28;20317;-78
2021/03/23 14:50:51;;;;;;;7.65;4.05;;;;;;;;;;4998268;28;20033;-78
2021/03/23 14:53:21;;;;;;;64.32;23.15;;;;;;;;;;4997647;28;20318;-78